Latest Weather Observations for Pearce

IDW60901

Issued at 8:21 am WST Sunday 17 February 2019 (issued every 10 minutes, with the page automatically refreshed every 10 minutes)

About weather observations | Map of Perth area stations | Latest observations for Perth area | Other Formats
Station Details ID: 009053 Name: PEARCE RAAF Lat: -31.67 Lon: 116.02 Height: 40.0 m
Data from the previous 72 hours. | See also: Recent months at Pearce
Date/Time
WST
Temp
°C
App
Temp
°C
Dew
Point
°C
Rel
Hum
%
Delta-T
°C
Wind Press
QNH
hPa
Press
MSL
hPa
Rain since
9am
mm
Dir  Spd
km/h
Gust
km/h
Spd
kts
Gust
kts
17/08:00am 20.8 17.0 12.5 59 4.7 ESE 24 33 13 18 1018.0 1017.7 0.0
17/07:30am 19.8 14.8 12.3 62 4.2 E 30 44 16 24 1017.7 1017.4 0.0
17/07:00am 19.6 16.2 12.6 64 3.9 ESE 22 32 12 17 1017.8 1017.5 0.0
17/06:30am 19.2 17.2 12.7 66 3.7 E 15 24 8 13 1017.5 1017.2 0.0
17/06:00am 18.8 15.5 12.8 68 3.4 ESE 22 33 12 18 1017.2 1016.9 0.0
17/05:30am 18.6 16.6 12.8 69 3.3 ESE 15 22 8 12 1016.9 1016.6 0.0
17/05:00am 18.8 16.4 12.8 68 3.4 SSE 17 30 9 16 1016.7 1016.4 0.0
17/04:30am 19.0 18.2 13.0 68 3.4 SSE 9 19 5 10 1016.6 1016.3 0.0
17/04:00am 19.3 18.1 12.8 66 3.7 SSE 11 20 6 11 1016.4 1016.1 0.0
17/03:30am 19.8 17.8 12.8 64 4.0 SSE 15 32 8 17 1016.6 1016.3 0.0
17/03:00am 20.1 17.1 12.6 62 4.2 SE 20 37 11 20 1016.3 1016.0 0.0
17/02:30am 20.6 17.3 12.8 61 4.4 E 22 39 12 21 1016.4 1016.1 0.0
17/02:00am 21.2 16.0 12.9 59 4.7 E 32 56 17 30 1016.1 1015.8 0.0
17/01:44am 21.6 17.2 13.0 58 4.9 ESE 28 52 15 28 1016.1 1015.8 0.0
17/01:30am 21.8 19.1 12.9 57 5.1 ESE 19 32 10 17 1016.2 1015.9 0.0
17/01:00am 22.7 19.0 12.6 53 5.8 ESE 24 48 13 26 1016.2 1015.9 0.0
17/12:35am 23.4 18.9 12.7 51 6.1 ESE 28 50 15 27 1016.3 1016.0 0.0
17/12:30am 23.4 19.7 12.7 51 6.1 E 24 50 13 27 1016.4 1016.1 0.0
17/12:15am 23.8 20.8 12.4 48 6.5 ESE 20 48 11 26 1016.4 1016.1 0.0
17/12:13am 23.9 21.1 12.5 49 6.5 ESE 19 48 10 26 1016.3 1016.0 0.0
17/12:00am 24.2 21.8 12.5 48 6.7 ESE 17 30 9 16 1016.5 1016.2 0.0
 
Date/Time
WST
Temp
°C
App
Temp
°C
Dew
Point
°C
Rel
Hum
%
Delta-T
°C
Wind Press
QNH
hPa
Press
MSL
hPa
Rain since
9am
mm
Dir  Spd
km/h
Gust
km/h
Spd
kts
Gust
kts
16/11:30pm 22.3 22.2 15.9 67 3.9 SSE 11 24 6 13 1016.4 1016.1 0.0
16/11:00pm 21.8 22.7 16.7 73 3.1 SE 7 9 4 5 1016.5 1016.2 0.0
16/10:30pm 21.5 22.4 16.2 72 3.2 SSW 6 7 3 4 1016.6 1016.3 0.0
16/10:00pm 21.9 22.7 16.4 71 3.3 S 7 9 4 5 1016.7 1016.4 0.0
16/09:30pm 22.2 22.7 16.5 70 3.5 SSW 9 13 5 7 1016.6 1016.3 0.0
16/09:00pm 22.7 23.2 16.5 68 3.8 SSW 9 13 5 7 1016.5 1016.2 0.0
16/08:30pm 23.2 23.3 16.5 66 4.1 SW 11 15 6 8 1016.2 1015.9 0.0
16/08:00pm 23.5 23.4 16.1 63 4.5 SW 11 13 6 7 1016.1 1015.8 0.0
16/07:30pm 24.2 22.9 15.9 59 5.0 SW 17 20 9 11 1015.6 1015.3 0.0
16/07:00pm 25.2 23.2 14.9 52 6.2 SSW 19 26 10 14 1015.4 1015.1 0.0
16/06:30pm 26.7 24.2 15.1 49 7.0 SSW 22 28 12 15 1015.1 1014.8 0.0
16/06:00pm 28.3 24.6 13.8 41 8.7 SW 26 32 14 17 1014.7 1014.5 0.0
16/05:30pm 29.1 24.3 12.9 37 9.6 SSW 30 37 16 20 1014.6 1014.4 0.0
16/05:00pm 30.1 26.0 13.8 37 9.8 SW 28 35 15 19 1014.5 1014.3 0.0
16/04:30pm 31.3 27.6 14.0 35 10.5 SW 26 33 14 18 1014.6 1014.4 0.0
16/04:00pm 31.4 27.4 14.1 35 10.5 WSW 28 37 15 20 1014.7 1014.5 0.0
16/03:30pm 31.2 27.0 13.5 34 10.6 WSW 28 37 15 20 1014.8 1014.6 0.0
16/03:00pm 31.3 27.3 14.0 35 10.5 SW 28 35 15 19 1015.2 1014.9 0.0
16/02:30pm 31.0 26.5 13.7 34 10.4 SW 30 39 16 21 1015.5 1015.2 0.0
16/02:00pm 30.5 25.9 14.6 38 9.7 SW 32 41 17 22 1015.8 1015.5 0.0
16/01:30pm 31.7 27.9 14.8 36 10.4 SW 28 39 15 21 1015.9 1015.6 0.0
16/01:00pm 31.1 28.7 12.5 32 11.0 SW 17 28 9 15 1016.1 1015.8 0.0
16/12:30pm 31.3 29.4 13.1 33 10.9 SW 15 32 8 17 1016.5 1016.2 0.0
16/12:00pm 30.1 28.8 12.5 34 10.4 SW 11 19 6 10 1017.0 1016.7 0.0
16/11:30am 29.2 27.9 12.6 36 9.8 SW 11 20 6 11 1017.6 1017.3 0.0
16/11:00am 28.5 27.0 12.0 36 9.6 SE 11 20 6 11 1017.9 1017.6 0.0
16/10:30am 27.6 25.9 12.4 39 8.9 SE 13 19 7 10 1018.1 1017.8 0.0
16/10:00am 27.0 26.2 13.0 42 8.2 SSE 9 17 5 9 1018.6 1018.3 0.0
16/09:30am 25.9 26.2 15.0 51 6.6 SE 7 19 4 10 1018.8 1018.5 0.0
16/09:00am 23.0 22.6 15.1 61 4.7 SSW 11 17 6 9 1019.1 1018.8 0.0
16/08:30am 21.5 20.7 15.1 67 3.8 SSW 13 17 7 9 1019.0 1018.7 0.0
16/08:00am 20.3 19.6 16.5 79 2.3 S 15 19 8 10 1019.2 1018.9 0.0
16/07:30am 17.9 17.7 16.8 93 0.7 S 13 17 7 9 1019.1 1018.8 0.0
16/07:00am 17.2 17.6 16.4 95 0.5 S 9 13 5 7 1018.9 1018.6 0.0
16/06:51am 17.0 17.9 16.2 95 0.5 SSE 6 9 3 5 1018.7 1018.4 0.0
16/06:30am 15.7 15.9 14.7 94 0.6 SSE 7 9 4 5 1018.6 1018.3 0.0
16/06:00am 16.1 17.8 15.1 94 0.6 CALM 0 0 0 0 1018.3 1018.0 0.0
16/05:30am 16.1 17.0 15.1 94 0.6 SSE 4 7 2 4 1017.8 1017.5 0.0
16/05:00am 16.5 18.3 15.5 94 0.6 CALM 0 0 0 0 1017.5 1017.2 0.0
16/04:30am 16.1 17.7 15.0 93 0.6 CALM 0 0 0 0 1017.3 1017.0 0.0
16/04:00am 15.5 16.9 14.4 93 0.6 CALM 0 0 0 0 1017.2 1016.9 0.0
16/03:51am 15.7 17.2 14.6 93 0.6 CALM 0 0 0 0 1017.1 1016.8 0.0
16/03:30am 16.3 16.9 15.2 93 0.6 NNE 6 6 3 3 1017.0 1016.7 0.0
16/03:20am 16.2 16.7 15.1 93 0.6 NNE 6 6 3 3 1017.2 1016.9 0.0
16/03:04am 15.8 16.1 14.5 92 0.7 NNE 6 7 3 4 1017.2 1016.9 0.0
16/03:00am 15.8 16.1 14.5 92 0.7 NNE 6 7 3 4 1017.3 1017.0 0.0
16/02:49am 15.5 15.5 14.2 92 0.7 NNE 7 9 4 5 1017.3 1017.0 0.0
16/02:30am 15.4 15.5 13.9 91 0.8 NNE 6 7 3 4 1017.3 1017.0 0.0
16/02:00am 16.6 17.1 15.1 91 0.9 NNE 6 6 3 3 1017.4 1017.1 0.0
16/01:30am 16.3 17.1 14.7 90 0.9 NNE 4 6 2 3 1017.7 1017.4 0.0
16/01:00am 16.7 17.2 14.9 89 1.0 NNE 6 7 3 4 1018.0 1017.7 0.0
16/12:30am 18.3 18.9 16.8 91 0.9 NNE 9 11 5 6 1018.1 1017.8 0.0
16/12:01am 17.9 18.3 16.4 91 0.9 N 9 11 5 6 1018.5 1018.2 0.0
16/12:00am 17.9 18.3 16.4 91 0.9 N 9 11 5 6 1018.5 1018.2 0.0
 
Date/Time
WST
Temp
°C
App
Temp
°C
Dew
Point
°C
Rel
Hum
%
Delta-T
°C
Wind Press
QNH
hPa
Press
MSL
hPa
Rain since
9am
mm
Dir  Spd
km/h
Gust
km/h
Spd
kts
Gust
kts
15/11:30pm 17.8 18.1 16.1 90 1.0 N 9 11 5 6 1018.6 1018.3 0.0
15/11:15pm 18.1 18.9 16.4 90 1.0 N 7 9 4 5 1018.6 1018.3 0.0
15/11:00pm 18.1 18.5 16.3 89 1.1 N 9 9 5 5 1018.6 1018.3 0.0
15/10:30pm 18.5 19.4 16.5 88 1.2 NNW 7 9 4 5 1019.0 1018.7 0.0
15/10:00pm 18.9 20.3 16.5 86 1.4 NNW 4 6 2 3 1019.0 1018.7 0.0
15/09:30pm 18.9 19.6 16.0 83 1.7 WNW 7 9 4 5 1018.9 1018.6 0.0
15/09:00pm 19.9 21.0 16.7 82 1.9 NNW 6 7 3 4 1018.8 1018.5 0.0
15/08:30pm 20.0 20.0 16.2 79 2.3 WSW 11 17 6 9 1018.5 1018.2 0.0
15/08:00pm 20.4 20.6 15.8 75 2.7 SW 9 13 5 7 1018.3 1018.0 0.0
15/07:30pm 21.2 20.4 16.0 72 3.1 SW 15 19 8 10 1018.1 1017.8 0.0
15/07:00pm 22.0 20.3 16.3 70 3.4 SW 20 24 11 13 1017.7 1017.4 0.0
15/06:30pm 23.7 21.8 15.7 61 4.8 SW 20 26 11 14 1017.3 1017.0 0.0
15/06:00pm 25.0 23.4 15.0 53 6.0 WSW 17 22 9 12 1016.8 1016.5 0.0
15/05:30pm 25.7 23.8 15.1 52 6.4 SW 19 24 10 13 1016.6 1016.3 0.0
15/05:00pm 26.4 24.0 15.4 50 6.7 WSW 22 28 12 15 1016.7 1016.4 0.0
15/04:30pm 27.6 25.7 16.6 51 6.8 SW 22 30 12 16 1016.4 1016.1 0.0
15/04:00pm 27.6 25.9 16.2 49 7.0 WSW 20 28 11 15 1016.0 1015.7 0.0
15/03:30pm 28.4 26.5 16.7 49 7.3 SW 22 32 12 17 1016.0 1015.7 0.0
15/03:00pm 28.3 26.2 16.2 47 7.5 WSW 22 33 12 18 1016.0 1015.7 0.0
15/02:30pm 29.0 26.9 16.2 46 8.0 WSW 22 32 12 17 1015.9 1015.6 0.0
15/02:00pm 29.1 27.4 16.3 46 8.0 SW 20 30 11 16 1016.1 1015.8 0.0
15/01:30pm 30.4 28.2 14.9 39 9.5 WSW 20 32 11 17 1016.2 1015.9 0.0
15/01:00pm 29.0 26.1 15.2 43 8.4 WSW 24 32 13 17 1016.2 1015.9 0.0
15/12:30pm 29.2 26.6 15.0 42 8.7 W 22 32 12 17 1016.3 1016.0 0.0
15/12:00pm 30.5 27.9 15.0 39 9.5 W 22 30 12 16 1016.4 1016.1 0.0
15/11:30am 29.1 27.5 14.9 42 8.7 W 17 28 9 15 1016.6 1016.3 0.0
15/11:00am 28.5 27.0 15.4 45 8.0 W 17 24 9 13 1016.9 1016.6 0.0
15/10:30am 26.4 26.3 16.1 53 6.3 W 11 17 6 9 1017.0 1016.7 0.0
15/10:00am 25.8 25.9 16.6 56 5.7 NW 11 19 6 10 1017.1 1016.8 0.0
15/09:30am 24.3 25.3 16.8 63 4.6 WNW 7 15 4 8 1017.1 1016.8 0.0
15/09:00am 22.3 23.1 16.3 69 3.6 WNW 7 11 4 6 1017.3 1017.0 0.2
15/08:59am 22.6 23.6 16.9 70 3.5 WNW 7 13 4 7 1017.3 1017.0 0.2
15/08:30am 21.3 20.9 16.3 73 3.0 WNW 13 15 7 8 1017.4 1017.1 0.2
15/08:00am 20.7 21.6 16.7 78 2.4 WNW 7 11 4 6 1016.9 1016.6 0.2
15/07:30am 20.4 21.7 17.2 82 2.0 WSW 6 7 3 4 1016.5 1016.2 0.2
15/07:00am 19.9 21.7 17.5 86 1.5 WSW 4 7 2 4 1016.4 1016.1 0.2
15/06:30am 19.2 20.5 17.5 90 1.0 N 7 9 4 5 1016.3 1016.0 0.2
15/06:00am 18.7 19.2 17.5 93 0.7 NNW 11 13 6 7 1016.0 1015.7 0.2
15/05:43am 18.8 19.8 17.8 94 0.6 NNW 9 13 5 7 1015.7 1015.4 0.2
15/05:30am 18.7 20.1 17.7 94 0.6 NNW 7 9 4 5 1015.7 1015.4 0.2
15/05:00am 18.6 20.9 17.6 94 0.6 N 2 7 1 4 1015.3 1015.0 0.2
15/04:30am 18.5 19.8 17.5 94 0.6 N 7 9 4 5 1014.7 1014.5 0.2
15/04:00am 18.4 19.5 17.2 93 0.7 N 7 9 4 5 1014.7 1014.5 0.2
15/03:30am 18.5 19.7 17.3 93 0.7 NNW 7 11 4 6 1014.6 1014.4 0.2
15/03:00am 18.4 19.4 16.9 91 0.9 NNW 7 9 4 5 1014.5 1014.3 0.2
15/02:30am 18.8 21.1 16.8 88 1.2 CALM 0 7 0 4 1014.6 1014.4 0.2
15/02:15am 19.0 20.9 16.8 87 1.3 NNE 2 6 1 3 1014.6 1014.4 0.2
15/02:00am 18.5 19.1 15.9 85 1.5 NNE 7 7 4 4 1014.6 1014.4 0.2
15/01:30am 16.9 16.8 13.8 82 1.8 NNW 7 9 4 5 1014.8 1014.6 0.2
15/01:00am 15.7 15.2 12.5 81 1.8 N 7 9 4 5 1015.2 1014.9 0.2
15/12:38am 17.5 19.1 14.8 84 1.6 CALM 0 0 0 0 1015.3 1015.0 0.2
15/12:30am 18.4 20.4 16.0 86 1.4 CALM 0 0 0 0 1015.4 1015.1 0.2
15/12:00am 16.6 16.8 12.9 79 2.1 NW 4 7 2 4 1015.6 1015.3 0.2
 
Date/Time
WST
Temp
°C
App
Temp
°C
Dew
Point
°C
Rel
Hum
%
Delta-T
°C
Wind Press
QNH
hPa
Press
MSL
hPa
Rain since
9am
mm
Dir  Spd
km/h
Gust
km/h
Spd
kts
Gust
kts
14/11:30pm 18.5 20.3 15.6 83 1.7 CALM 0 0 0 0 1015.4 1015.1 0.2
14/11:00pm 18.7 20.4 15.2 80 2.1 CALM 0 0 0 0 1015.4 1015.1 0.2
14/10:30pm 19.0 19.4 14.7 76 2.5 N 6 7 3 4 1015.3 1015.0 0.2
14/10:00pm 18.5 18.3 13.6 73 2.8 W 7 9 4 5 1015.2 1014.9 0.2
14/09:30pm 19.7 19.6 13.9 69 3.3 W 7 7 4 4 1014.7 1014.5 0.2
14/09:00pm 20.5 20.8 14.4 68 3.6 W 6 7 3 4 1014.5 1014.3 0.2
14/08:30pm 20.8 21.6 13.7 64 4.1 WSW 2 7 1 4 1014.1 1013.9 0.2
14/08:00pm 21.4 22.5 13.6 61 4.5 CALM 0 2 0 1 1013.8 1013.6 0.2
14/07:30pm 22.4 21.4 13.5 57 5.2 WSW 11 15 6 8 1013.5 1013.3 0.2
14/07:00pm 24.4 21.9 12.4 47 6.9 WSW 17 19 9 10 1013.2 1013.0 0.2
14/06:30pm 26.5 23.1 10.6 37 8.9 SW 19 24 10 13 1012.8 1012.6 0.2
14/06:00pm 28.2 23.9 9.5 31 10.4 SW 22 30 12 16 1012.6 1012.4 0.2
14/05:30pm 28.9 24.6 8.0 27 11.4 SW 20 26 11 14 1012.3 1012.1 0.2
14/05:00pm 29.6 23.9 6.9 24 12.2 SW 26 32 14 17 1012.1 1011.9 0.2
14/04:30pm 30.4 24.5 7.6 24 12.4 SW 28 35 15 19 1012.0 1011.8 0.2
14/04:00pm 32.4 27.1 6.6 20 14.0 WSW 24 30 13 16 1011.7 1011.5 0.2
14/03:30pm 32.2 26.8 6.4 20 13.9 SW 24 33 13 18 1011.5 1011.3 0.2
14/03:00pm 32.6 27.5 6.0 19 14.3 WSW 22 32 12 17 1011.3 1011.1 0.2
14/02:30pm 32.1 27.5 6.3 20 13.9 SW 20 28 11 15 1011.4 1011.2 0.2
14/02:00pm 31.6 27.7 8.6 24 12.8 SSW 19 26 10 14 1011.7 1011.5 0.2
14/01:30pm 31.9 28.5 10.6 27 12.3 SW 19 28 10 15 1011.9 1011.7 0.2
14/01:00pm 32.2 28.8 12.4 30 11.8 SW 22 43 12 23 1012.0 1011.8 0.2
14/12:30pm 32.8 30.6 10.8 26 12.8 S 13 28 7 15 1012.0 1011.8 0.2
14/12:00pm 31.3 29.7 10.1 27 12.1 SW 9 13 5 7 1012.4 1012.2 0.2
14/11:30am 30.2 28.4 12.1 32 10.6 SW 13 22 7 12 1013.0 1012.8 0.2
14/11:00am 29.0 27.5 13.2 37 9.4 SSW 13 17 7 9 1013.4 1013.2 0.2
14/10:30am 28.1 27.5 13.6 41 8.6 SW 9 20 5 11 1013.6 1013.4 0.2
14/10:00am 26.4 25.3 12.1 41 8.2 SW 9 15 5 8 1013.8 1013.6 0.2
14/09:30am 25.3 23.7 12.9 46 7.2 SW 13 19 7 10 1014.0 1013.8 0.0
14/09:00am 24.2 23.2 12.2 47 6.9 SSW 9 15 5 8 1014.3 1014.1 0.0
14/08:30am 23.3 23.2 13.2 53 5.8 SSW 6 11 3 6 1014.4 1014.2 0.0

Latest Capital City Observations: Canberra | Sydney | Melbourne | Brisbane | Adelaide | Perth | Hobart | Darwin

Other Formats:

Comma delimited format used in spreadsheet applications
http://www.bom.gov.au/fwo/IDW60901/IDW60901.94612.axf

JavaScript Object Notation format (JSON) in row-major order
http://www.bom.gov.au/fwo/IDW60901/IDW60901.94612.json